Time;durP1;ratioP1;P1;durP2;ratioP2;P2;SDS_P1;SDS_P2;PMS_P1;PMS_P2;Temp;Humidity;BMP_temperature;BMP_pressure;BME280_temperature;BME280_humidity;BME280_pressure;Samples;Min_cycle;Max_cycle;Signal;HPM_P1;HPM_P2
2022/01/23 00:00:38;;;;;;;76.20;15.82;;;;;;;;;;5093413;28;20208;-73
2022/01/23 00:03:10;;;;;;;78.78;15.23;;;;;;;;;;5093689;28;20235;-73
2022/01/23 00:05:41;;;;;;;74.18;15.07;;;;;;;;;;5092694;28;20212;-73
2022/01/23 00:08:10;;;;;;;77.18;13.80;;;;;;;;;;5091971;28;20266;-73
2022/01/23 00:10:38;;;;;;;73.43;12.10;;;;;;;;;;5092373;28;20236;-73
2022/01/23 00:13:12;;;;;;;71.57;12.32;;;;;;;;;;5092227;28;20264;-74
2022/01/23 00:18:24;;;;;;;67.07;8.70;;;;;;;;;;5091811;28;20196;-73
2022/01/23 00:20:52;;;;;;;69.82;9.38;;;;;;;;;;5101789;28;20215;-73
2022/01/23 00:23:31;;;;;;;71.78;11.50;;;;;;;;;;5111901;28;20595;-73
2022/01/23 00:31:31;;;;;;;68.57;9.95;;;;;;;;;;5112540;28;20267;-73
2022/01/23 00:33:59;;;;;;;68.90;10.13;;;;;;;;;;5112066;28;20314;-73
2022/01/23 00:36:27;;;;;;;72.25;10.98;;;;;;;;;;5112656;28;20627;-73
2022/01/23 00:38:54;;;;;;;72.18;10.43;;;;;;;;;;5112219;28;20668;-73
2022/01/23 00:41:23;;;;;;;68.45;9.57;;;;;;;;;;5111981;28;20323;-73
2022/01/23 00:43:52;;;;;;;71.22;10.35;;;;;;;;;;5112437;28;20221;-73
2022/01/23 00:46:30;;;;;;;72.30;11.05;;;;;;;;;;5112100;28;20235;-73
2022/01/23 00:51:42;;;;;;;69.53;10.20;;;;;;;;;;5111563;28;20278;-72
2022/01/23 00:54:10;;;;;;;71.20;9.90;;;;;;;;;;5111530;28;20283;-74
2022/01/23 00:56:39;;;;;;;72.53;10.90;;;;;;;;;;5112066;28;20295;-73
2022/01/23 00:59:07;;;;;;;69.00;10.85;;;;;;;;;;5111834;28;20204;-73
2022/01/23 01:01:34;;;;;;;70.97;10.73;;;;;;;;;;5111748;28;20224;-73
2022/01/23 01:04:01;;;;;;;68.00;9.50;;;;;;;;;;5111961;28;20666;-73
2022/01/23 01:06:29;;;;;;;70.63;9.90;;;;;;;;;;5112222;28;20695;-73
2022/01/23 01:09:01;;;;;;;71.57;11.02;;;;;;;;;;5111608;28;20299;-73
2022/01/23 01:11:54;;;;;;;73.15;11.00;;;;;;;;;;5115897;28;20208;-74
2022/01/23 01:17:14;;;;;;;67.32;8.35;;;;;;;;;;5115754;28;20208;-73
2022/01/23 01:30:54;;;;;;;69.70;10.25;;;;;;;;;;5115818;28;20203;-73
2022/01/23 01:33:31;;;;;;;73.75;11.43;;;;;;;;;;5115768;28;20235;-73
2022/01/23 01:36:02;;;;;;;71.47;11.13;;;;;;;;;;5115663;28;20204;-74
2022/01/23 01:38:31;;;;;;;77.60;11.90;;;;;;;;;;5115408;28;20208;-74
2022/01/23 01:40:58;;;;;;;70.53;11.38;;;;;;;;;;5115544;28;20588;-74
2022/01/23 01:43:25;;;;;;;71.45;10.85;;;;;;;;;;5115243;28;20255;-74
2022/01/23 01:45:54;;;;;;;74.65;11.90;;;;;;;;;;5115510;28;20295;-74
2022/01/23 01:48:24;;;;;;;70.85;11.15;;;;;;;;;;5115295;28;20208;-74
2022/01/23 01:50:54;;;;;;;71.22;11.45;;;;;;;;;;5115021;28;20208;-74
2022/01/23 01:53:21;;;;;;;70.45;11.00;;;;;;;;;;5115515;28;20228;-74
2022/01/23 01:55:52;;;;;;;71.97;11.35;;;;;;;;;;5115223;28;20733;-74
2022/01/23 01:58:58;;;;;;;70.72;11.07;;;;;;;;;;5095746;28;20209;-73
2022/01/23 02:09:53;;;;;;;70.85;10.35;;;;;;;;;;5052242;28;20217;-73
2022/01/23 02:15:43;;;;;;;70.80;11.30;;;;;;;;;;5081488;28;20193;-74
2022/01/23 02:18:26;;;;;;;76.93;11.20;;;;;;;;;;5094312;28;20664;-74
2022/01/23 02:24:06;;;;;;;73.07;12.20;;;;;;;;;;5094761;28;20220;-73
2022/01/23 02:51:45;;;;;;;75.15;12.75;;;;;;;;;;5114163;28;20203;-73
2022/01/23 02:57:11;;;;;;;74.93;13.68;;;;;;;;;;5070993;28;20263;-74
2022/01/23 02:59:40;;;;;;;78.10;13.35;;;;;;;;;;5103814;28;20211;-74
2022/01/23 03:02:21;;;;;;;78.28;14.20;;;;;;;;;;5112165;28;20615;-74
2022/01/23 03:04:51;;;;;;;82.97;13.77;;;;;;;;;;5114028;28;20208;-73
2022/01/23 03:07:36;;;;;;;77.22;14.68;;;;;;;;;;5113328;28;20240;-73
2022/01/23 03:10:08;;;;;;;73.78;13.85;;;;;;;;;;5114054;28;20311;-73
2022/01/23 03:15:27;;;;;;;77.05;14.68;;;;;;;;;;5113913;28;20203;-74
2022/01/23 03:26:31;;;;;;;75.45;13.27;;;;;;;;;;5070561;28;20252;-71
2022/01/23 03:31:44;;;;;;;79.43;14.65;;;;;;;;;;5113280;28;20196;-74
2022/01/23 03:34:11;;;;;;;78.00;15.35;;;;;;;;;;5110927;28;20215;-74
2022/01/23 03:36:38;;;;;;;78.28;15.20;;;;;;;;;;5113689;28;20240;-74
2022/01/23 03:39:08;;;;;;;76.13;13.45;;;;;;;;;;5113113;28;20207;-74
2022/01/23 03:41:38;;;;;;;78.70;14.90;;;;;;;;;;5113092;28;20212;-74
2022/01/23 03:44:06;;;;;;;81.20;15.05;;;;;;;;;;5113169;28;20303;-73
2022/01/23 03:46:49;;;;;;;77.35;15.10;;;;;;;;;;5112899;28;20201;-73
2022/01/23 03:49:31;;;;;;;77.43;15.00;;;;;;;;;;5112793;28;20203;-73
2022/01/23 03:52:00;;;;;;;78.78;16.00;;;;;;;;;;5113099;28;20303;-73
2022/01/23 03:54:28;;;;;;;74.20;14.05;;;;;;;;;;5113825;28;20209;-73
2022/01/23 03:56:57;;;;;;;76.53;15.40;;;;;;;;;;5116088;28;20204;-73
2022/01/23 03:59:25;;;;;;;77.05;14.88;;;;;;;;;;5113345;28;20204;-74
2022/01/23 04:01:52;;;;;;;78.00;14.45;;;;;;;;;;5112809;28;20212;-74
2022/01/23 04:04:37;;;;;;;79.32;14.75;;;;;;;;;;5113116;28;20295;-73
2022/01/23 04:07:05;;;;;;;79.70;16.48;;;;;;;;;;5110967;28;20218;-73
2022/01/23 04:09:32;;;;;;;75.38;14.25;;;;;;;;;;5112729;28;20214;-73
2022/01/23 04:12:02;;;;;;;76.40;15.23;;;;;;;;;;5113023;28;20724;-73
2022/01/23 04:14:30;;;;;;;81.20;15.60;;;;;;;;;;5113017;28;20211;-73
2022/01/23 04:17:34;;;;;;;77.13;14.40;;;;;;;;;;5112779;28;20215;-73
2022/01/23 04:20:18;;;;;;;73.82;13.95;;;;;;;;;;5112391;28;20204;-72
2022/01/23 04:33:59;;;;;;;75.15;13.40;;;;;;;;;;5112438;28;20223;-73
2022/01/23 05:01:22;;;;;;;73.22;13.50;;;;;;;;;;5112424;28;20202;-73
2022/01/23 05:06:42;;;;;;;79.38;15.60;;;;;;;;;;5107996;28;20643;-73
2022/01/23 05:09:10;;;;;;;73.35;12.38;;;;;;;;;;5111955;28;20231;-73
2022/01/23 05:11:39;;;;;;;77.25;15.57;;;;;;;;;;5110280;28;20205;-73
2022/01/23 05:14:06;;;;;;;74.03;13.70;;;;;;;;;;5111904;28;20200;-74
2022/01/23 05:16:35;;;;;;;74.80;13.73;;;;;;;;;;5112050;28;20215;-74
2022/01/23 05:19:03;;;;;;;79.15;13.63;;;;;;;;;;5111841;28;20772;-74
2022/01/23 05:21:58;;;;;;;82.80;13.43;;;;;;;;;;5111726;28;20644;-73
2022/01/23 05:24:32;;;;;;;74.95;12.27;;;;;;;;;;5111513;28;20283;-73
2022/01/23 05:27:00;;;;;;;76.38;13.07;;;;;;;;;;5111694;28;20213;-73
2022/01/23 05:29:27;;;;;;;77.30;14.50;;;;;;;;;;5111305;28;20236;-72
2022/01/23 05:31:55;;;;;;;77.30;13.75;;;;;;;;;;5111893;28;20204;-73
2022/01/23 05:34:23;;;;;;;79.18;13.88;;;;;;;;;;5111840;28;20203;-74
2022/01/23 05:36:50;;;;;;;78.82;14.40;;;;;;;;;;5111620;28;20208;-74
2022/01/23 05:39:20;;;;;;;77.43;14.48;;;;;;;;;;5111349;28;20204;-73
2022/01/23 05:41:47;;;;;;;78.18;14.30;;;;;;;;;;5110508;28;20208;-73
2022/01/23 05:44:14;;;;;;;75.60;13.75;;;;;;;;;;5111451;28;20228;-73
2022/01/23 05:46:42;;;;;;;72.97;14.02;;;;;;;;;;5111651;28;20210;-73
2022/01/23 05:49:10;;;;;;;80.00;14.45;;;;;;;;;;5111168;28;20565;-73
2022/01/23 05:51:37;;;;;;;82.68;14.48;;;;;;;;;;5112311;28;20204;-73
2022/01/23 05:54:05;;;;;;;74.18;13.45;;;;;;;;;;5114249;28;20276;-73
2022/01/23 05:56:32;;;;;;;79.25;14.10;;;;;;;;;;5113982;28;20640;-73
2022/01/23 05:58:59;;;;;;;74.63;12.52;;;;;;;;;;5115232;28;20579;-73
2022/01/23 06:01:26;;;;;;;79.03;14.88;;;;;;;;;;5116437;28;20657;-73
2022/01/23 06:03:54;;;;;;;75.13;13.38;;;;;;;;;;5114867;28;20234;-73
2022/01/23 06:06:22;;;;;;;74.75;13.27;;;;;;;;;;5115034;27;20205;-73
2022/01/23 06:08:49;;;;;;;73.05;12.45;;;;;;;;;;5114584;28;20207;-73
2022/01/23 06:11:17;;;;;;;74.32;12.15;;;;;;;;;;5115441;28;20639;-73
2022/01/23 06:13:44;;;;;;;75.35;12.48;;;;;;;;;;5114666;27;20220;-73
2022/01/23 06:16:13;;;;;;;73.60;12.32;;;;;;;;;;5094268;28;20225;-73
2022/01/23 06:18:41;;;;;;;74.53;13.30;;;;;;;;;;5094292;28;20752;-73
2022/01/23 06:21:08;;;;;;;75.55;13.13;;;;;;;;;;5094572;28;20573;-73
2022/01/23 06:23:37;;;;;;;74.88;13.43;;;;;;;;;;5094264;28;20228;-73
2022/01/23 06:26:04;;;;;;;75.78;13.00;;;;;;;;;;5094302;28;20299;-73
2022/01/23 06:28:36;;;;;;;79.20;14.40;;;;;;;;;;5094152;28;20522;-72
2022/01/23 06:31:03;;;;;;;75.07;13.10;;;;;;;;;;5094378;28;20211;-73
2022/01/23 06:33:30;;;;;;;76.90;13.27;;;;;;;;;;5093977;28;20311;-73
2022/01/23 06:35:57;;;;;;;76.20;13.65;;;;;;;;;;5094359;28;20374;-73
2022/01/23 06:38:25;;;;;;;76.10;14.60;;;;;;;;;;5094135;28;20292;-74
2022/01/23 06:40:53;;;;;;;74.72;13.02;;;;;;;;;;5094184;28;20215;-73
2022/01/23 06:43:20;;;;;;;74.88;13.50;;;;;;;;;;5093802;28;20229;-73
2022/01/23 06:45:48;;;;;;;76.10;12.23;;;;;;;;;;5094284;28;20201;-73
2022/01/23 06:48:15;;;;;;;75.15;13.20;;;;;;;;;;5114219;28;20299;-73
2022/01/23 06:50:42;;;;;;;71.57;13.02;;;;;;;;;;5114172;28;20202;-73
2022/01/23 06:53:09;;;;;;;78.38;12.65;;;;;;;;;;5114539;28;20227;-73
2022/01/23 06:55:36;;;;;;;76.70;13.20;;;;;;;;;;5114369;28;20215;-73
2022/01/23 06:58:05;;;;;;;74.10;11.55;;;;;;;;;;5113811;28;20212;-73
2022/01/23 07:00:33;;;;;;;81.07;17.13;;;;;;;;;;5113914;28;20236;-73
2022/01/23 07:03:00;;;;;;;79.60;15.90;;;;;;;;;;5113730;28;20281;-73
2022/01/23 07:05:27;;;;;;;85.80;16.70;;;;;;;;;;5113912;28;20236;-74
2022/01/23 07:07:54;;;;;;;81.97;15.48;;;;;;;;;;5112373;27;20220;-72
2022/01/23 07:10:21;;;;;;;78.05;15.40;;;;;;;;;;5114282;28;20209;-73
2022/01/23 07:12:49;;;;;;;78.57;13.70;;;;;;;;;;5113487;28;20247;-72
2022/01/23 07:15:17;;;;;;;76.25;13.73;;;;;;;;;;5114070;28;20246;-72
2022/01/23 07:17:45;;;;;;;78.18;13.07;;;;;;;;;;5107145;28;20215;-73
2022/01/23 07:20:12;;;;;;;76.35;13.95;;;;;;;;;;5093445;28;20300;-73
2022/01/23 07:22:39;;;;;;;77.50;13.90;;;;;;;;;;5092868;28;20604;-73
2022/01/23 07:25:07;;;;;;;76.47;15.65;;;;;;;;;;5093217;28;20255;-72
2022/01/23 07:27:38;;;;;;;75.00;12.77;;;;;;;;;;5092550;28;20677;-73
2022/01/23 07:30:08;;;;;;;74.25;12.73;;;;;;;;;;5092868;28;20208;-70
2022/01/23 07:32:37;;;;;;;77.15;14.95;;;;;;;;;;5093800;28;20233;-73
2022/01/23 07:35:04;;;;;;;81.05;15.43;;;;;;;;;;5093265;28;20209;-73
2022/01/23 07:37:31;;;;;;;75.93;14.15;;;;;;;;;;5092849;28;20227;-72
2022/01/23 07:39:58;;;;;;;78.97;14.35;;;;;;;;;;5092920;28;20208;-73
2022/01/23 07:42:25;;;;;;;84.50;16.63;;;;;;;;;;5092713;28;20398;-72
2022/01/23 07:44:53;;;;;;;75.60;13.27;;;;;;;;;;5092683;28;20320;-72
2022/01/23 07:47:22;;;;;;;79.82;15.75;;;;;;;;;;5092682;28;20692;-73
2022/01/23 07:49:51;;;;;;;76.80;15.57;;;;;;;;;;5097812;28;20231;-73
2022/01/23 07:52:18;;;;;;;78.70;15.27;;;;;;;;;;5115110;28;20307;-73
2022/01/23 07:54:45;;;;;;;81.30;15.57;;;;;;;;;;5112679;28;20222;-73
2022/01/23 07:57:12;;;;;;;81.18;15.68;;;;;;;;;;5112856;28;20291;-73
2022/01/23 07:59:39;;;;;;;81.88;16.70;;;;;;;;;;5113174;28;20207;-73
2022/01/23 08:02:06;;;;;;;80.00;15.02;;;;;;;;;;5112913;28;20232;-74
2022/01/23 08:04:34;;;;;;;79.78;16.42;;;;;;;;;;5112400;28;20323;-73
2022/01/23 08:07:11;;;;;;;77.35;14.80;;;;;;;;;;5112360;28;20243;-73
2022/01/23 08:09:38;;;;;;;77.30;16.05;;;;;;;;;;5112904;28;20213;-73
2022/01/23 08:12:06;;;;;;;89.20;19.90;;;;;;;;;;5112732;28;20323;-73
2022/01/23 08:14:33;;;;;;;82.05;16.80;;;;;;;;;;5112706;28;20204;-73
2022/01/23 08:17:00;;;;;;;73.85;13.48;;;;;;;;;;5112635;28;20582;-72
2022/01/23 08:19:27;;;;;;;84.22;17.25;;;;;;;;;;5112274;28;20208;-73
2022/01/23 08:21:54;;;;;;;85.25;16.10;;;;;;;;;;5110129;28;20668;-73
2022/01/23 08:24:23;;;;;;;78.88;15.38;;;;;;;;;;5112552;28;20341;-73
2022/01/23 08:26:50;;;;;;;74.63;12.90;;;;;;;;;;5112401;28;20210;-73
2022/01/23 08:29:17;;;;;;;81.78;15.57;;;;;;;;;;5112051;28;20211;-73
2022/01/23 08:31:45;;;;;;;86.05;18.77;;;;;;;;;;5112156;28;20213;-72
2022/01/23 08:34:12;;;;;;;81.05;15.63;;;;;;;;;;5112116;28;20298;-73
2022/01/23 08:36:39;;;;;;;81.32;14.95;;;;;;;;;;5112426;28;20210;-72
2022/01/23 08:39:07;;;;;;;82.53;13.93;;;;;;;;;;5112133;28;20200;-73
2022/01/23 08:41:51;;;;;;;81.70;15.50;;;;;;;;;;5112328;28;20211;-73
2022/01/23 08:44:18;;;;;;;82.82;18.65;;;;;;;;;;5112015;28;20779;-73
2022/01/23 08:46:45;;;;;;;81.75;15.10;;;;;;;;;;5112044;28;20646;-73
2022/01/23 08:49:12;;;;;;;86.00;16.20;;;;;;;;;;5111649;28;20214;-72
2022/01/23 08:51:39;;;;;;;91.25;16.60;;;;;;;;;;5112002;28;20299;-73
2022/01/23 08:54:07;;;;;;;83.35;15.88;;;;;;;;;;5109831;28;20295;-73
2022/01/23 08:56:35;;;;;;;79.90;15.25;;;;;;;;;;5112727;28;20232;-73
2022/01/23 08:59:03;;;;;;;82.90;15.98;;;;;;;;;;5111737;28;20291;-73
2022/01/23 09:01:30;;;;;;;82.38;15.60;;;;;;;;;;5112071;28;20299;-73
2022/01/23 09:03:58;;;;;;;81.13;14.68;;;;;;;;;;5111661;28;20771;-73
2022/01/23 09:06:25;;;;;;;84.55;17.83;;;;;;;;;;5112201;28;20208;-72
2022/01/23 09:08:53;;;;;;;85.13;16.38;;;;;;;;;;5111312;28;20212;-74
2022/01/23 09:11:38;;;;;;;80.20;17.10;;;;;;;;;;5111769;28;20240;-72
2022/01/23 09:14:07;;;;;;;82.32;15.75;;;;;;;;;;5111958;28;20253;-73
2022/01/23 09:16:35;;;;;;;79.45;17.08;;;;;;;;;;5112212;28;20311;-74
2022/01/23 09:19:02;;;;;;;81.38;16.55;;;;;;;;;;5111765;28;20201;-74
2022/01/23 09:21:29;;;;;;;83.85;17.10;;;;;;;;;;5112008;28;20205;-68
2022/01/23 09:23:56;;;;;;;78.05;14.68;;;;;;;;;;5111970;28;20220;-72
2022/01/23 09:26:24;;;;;;;82.38;16.60;;;;;;;;;;5102383;28;20204;-73
2022/01/23 09:28:53;;;;;;;84.97;15.80;;;;;;;;;;5091253;28;20609;-73
2022/01/23 09:31:32;;;;;;;84.97;16.00;;;;;;;;;;5092696;28;20209;-73
2022/01/23 09:33:59;;;;;;;80.88;15.05;;;;;;;;;;5095404;28;20228;-73
2022/01/23 09:36:28;;;;;;;81.20;16.13;;;;;;;;;;5095351;28;20699;-74
2022/01/23 09:38:55;;;;;;;81.75;17.33;;;;;;;;;;5095093;28;20248;-73
2022/01/23 09:41:23;;;;;;;81.72;15.65;;;;;;;;;;5095466;28;20219;-72
2022/01/23 09:43:51;;;;;;;82.05;16.48;;;;;;;;;;5094757;28;20315;-72
2022/01/23 09:46:19;;;;;;;79.38;16.33;;;;;;;;;;5095100;28;20209;-74
2022/01/23 09:48:48;;;;;;;79.63;16.10;;;;;;;;;;5096650;28;20211;-73
2022/01/23 09:51:16;;;;;;;85.27;16.00;;;;;;;;;;5096249;28;20676;-73
2022/01/23 09:53:44;;;;;;;90.63;17.55;;;;;;;;;;5095146;28;20536;-73
2022/01/23 09:56:14;;;;;;;83.00;17.13;;;;;;;;;;5094884;28;20697;-73
2022/01/23 09:58:41;;;;;;;86.33;18.70;;;;;;;;;;5100053;28;20200;-73
2022/01/23 10:01:10;;;;;;;79.80;15.63;;;;;;;;;;5115535;28;20452;-73
2022/01/23 10:03:38;;;;;;;80.60;15.47;;;;;;;;;;5114931;27;22902;-73
2022/01/23 10:06:08;;;;;;;84.17;17.33;;;;;;;;;;5115392;28;20452;-73
2022/01/23 10:08:36;;;;;;;76.30;14.70;;;;;;;;;;5114639;28;20872;-75
2022/01/23 10:11:09;;;;;;;75.57;13.97;;;;;;;;;;5115026;28;20623;-73
2022/01/23 10:13:36;;;;;;;74.37;13.23;;;;;;;;;;5115177;28;20800;-74
2022/01/23 10:16:04;;;;;;;72.30;13.50;;;;;;;;;;5114926;27;20876;-74
2022/01/23 10:18:31;;;;;;;74.97;13.03;;;;;;;;;;5114577;28;20522;-74
2022/01/23 10:20:58;;;;;;;70.43;12.20;;;;;;;;;;5115245;28;20792;-74
2022/01/23 10:23:27;;;;;;;74.83;11.70;;;;;;;;;;5114856;28;20890;-74
2022/01/23 10:25:54;;;;;;;71.67;8.93;;;;;;;;;;5114883;28;20453;-75
2022/01/23 10:28:23;;;;;;;76.53;13.13;;;;;;;;;;5114498;28;21025;-77
2022/01/23 10:30:53;;;;;;;76.17;13.10;;;;;;;;;;5101488;28;20999;-75
2022/01/23 10:33:21;;;;;;;78.73;11.53;;;;;;;;;;5094064;28;20952;-75
2022/01/23 10:35:58;;;;;;;81.17;13.53;;;;;;;;;;5094426;28;20450;-75
2022/01/23 10:38:28;;;;;;;74.03;12.37;;;;;;;;;;5094008;28;20451;-75
2022/01/23 10:41:06;;;;;;;76.70;14.40;;;;;;;;;;5094697;28;20447;-76
2022/01/23 10:46:49;;;;;;;80.93;14.67;;;;;;;;;;5094206;28;20815;-76
2022/01/23 10:49:16;;;;;;;72.43;12.30;;;;;;;;;;5093711;28;20955;-75
2022/01/23 10:51:49;;;;;;;76.07;13.70;;;;;;;;;;5093468;28;20962;-75
2022/01/23 10:54:20;;;;;;;69.90;11.03;;;;;;;;;;5093923;28;20439;-74
2022/01/23 10:56:59;;;;;;;74.73;12.07;;;;;;;;;;5094086;28;20443;-75
2022/01/23 10:59:26;;;;;;;72.13;11.77;;;;;;;;;;5093570;28;20496;-74
2022/01/23 11:02:01;;;;;;;74.40;12.43;;;;;;;;;;5092534;28;20539;-74
2022/01/23 11:04:28;;;;;;;75.20;12.20;;;;;;;;;;5093793;28;20895;-73
2022/01/23 11:06:57;;;;;;;82.60;13.70;;;;;;;;;;5093334;28;20446;-74
2022/01/23 11:09:30;;;;;;;83.10;16.40;;;;;;;;;;5093604;28;21000;-74
2022/01/23 11:12:12;;;;;;;73.47;12.70;;;;;;;;;;5093793;28;20620;-74
2022/01/23 11:17:25;;;;;;;71.67;12.67;;;;;;;;;;5093357;28;20430;-74
2022/01/23 11:20:00;;;;;;;75.00;14.10;;;;;;;;;;5093680;28;20447;-74
2022/01/23 11:22:28;;;;;;;74.57;13.10;;;;;;;;;;5093408;28;20975;-74
2022/01/23 11:24:59;;;;;;;77.57;12.70;;;;;;;;;;5093429;28;20494;-76
2022/01/23 11:27:31;;;;;;;69.37;10.43;;;;;;;;;;5093443;28;20454;-75
2022/01/23 11:30:00;;;;;;;74.20;12.10;;;;;;;;;;5093708;28;20876;-75
2022/01/23 11:32:31;;;;;;;76.30;13.33;;;;;;;;;;5093265;28;20473;-75
2022/01/23 11:35:07;;;;;;;71.70;12.43;;;;;;;;;;5094834;28;20505;-76
2022/01/23 11:37:34;;;;;;;73.60;11.93;;;;;;;;;;5095560;28;20466;-75
2022/01/23 11:40:10;;;;;;;71.60;11.13;;;;;;;;;;5095085;28;20493;-76
2022/01/23 11:53:46;;;;;;;73.87;12.37;;;;;;;;;;5070778;28;20455;-75
2022/01/23 11:56:37;;;;;;;72.07;11.30;;;;;;;;;;5098812;28;20518;-75
2022/01/23 11:59:21;;;;;;;73.90;13.10;;;;;;;;;;5115054;28;20445;-76
2022/01/23 12:01:51;;;;;;;71.43;10.83;;;;;;;;;;5112683;28;20434;-75
2022/01/23 12:04:20;;;;;;;73.83;9.93;;;;;;;;;;5114249;28;20475;-75
2022/01/23 12:07:02;;;;;;;70.97;12.43;;;;;;;;;;5112356;28;20504;-75
2022/01/23 12:09:29;;;;;;;71.87;10.60;;;;;;;;;;5113390;28;20423;-75
2022/01/23 12:12:19;;;;;;;69.57;10.63;;;;;;;;;;5115745;28;20463;-75
2022/01/23 12:17:43;;;;;;;68.13;9.30;;;;;;;;;;5092320;28;21005;-75
2022/01/23 12:20:10;;;;;;;68.80;9.90;;;;;;;;;;5092537;28;20499;-76
2022/01/23 12:22:55;;;;;;;69.37;9.57;;;;;;;;;;5092604;28;20470;-76
2022/01/23 12:25:25;;;;;;;68.90;8.90;;;;;;;;;;5092386;28;20510;-75
2022/01/23 12:28:13;;;;;;;70.37;11.27;;;;;;;;;;5092254;28;20458;-75
2022/01/23 12:30:41;;;;;;;66.17;8.83;;;;;;;;;;5092427;28;20439;-75
2022/01/23 12:33:28;;;;;;;66.47;9.10;;;;;;;;;;5092163;28;20532;-77
2022/01/23 12:35:56;;;;;;;67.40;9.43;;;;;;;;;;5092198;28;20935;-75
2022/01/23 12:38:28;;;;;;;67.60;8.83;;;;;;;;;;5091945;28;20537;-74
2022/01/23 12:40:55;;;;;;;69.10;9.47;;;;;;;;;;5092242;28;20443;-74
2022/01/23 12:43:25;;;;;;;68.70;9.50;;;;;;;;;;5092430;28;20617;-75
2022/01/23 12:45:54;;;;;;;92.17;16.27;;;;;;;;;;5092679;28;20490;-74
2022/01/23 12:48:39;;;;;;;73.07;10.20;;;;;;;;;;5092101;28;20451;-76
2022/01/23 12:51:07;;;;;;;64.97;7.90;;;;;;;;;;5092541;28;20520;-75
2022/01/23 12:53:38;;;;;;;67.20;9.23;;;;;;;;;;5091932;28;20467;-75
2022/01/23 12:56:07;;;;;;;71.27;7.50;;;;;;;;;;5092032;28;20818;-76
2022/01/23 12:58:35;;;;;;;62.97;6.00;;;;;;;;;;5091721;28;20549;-76
2022/01/23 13:01:05;;;;;;;63.00;6.20;;;;;;;;;;5092040;28;20909;-75
2022/01/23 13:03:32;;;;;;;67.27;8.80;;;;;;;;;;5091874;28;20836;-76
2022/01/23 13:06:00;;;;;;;63.30;6.20;;;;;;;;;;5092624;28;20581;-76
2022/01/23 13:08:30;;;;;;;61.90;5.07;;;;;;;;;;5095829;28;20463;-76
2022/01/23 13:11:22;;;;;;;61.93;5.67;;;;;;;;;;5096088;28;20490;-76
2022/01/23 13:14:00;;;;;;;62.07;6.10;;;;;;;;;;5096050;28;20470;-76
2022/01/23 13:16:36;;;;;;;63.30;6.10;;;;;;;;;;5096252;28;20478;-76
2022/01/23 13:19:22;;;;;;;66.27;7.03;;;;;;;;;;5095522;28;20446;-76
2022/01/23 13:30:22;;;;;;;64.23;7.10;;;;;;;;;;5051207;28;20582;-76
2022/01/23 13:32:51;;;;;;;65.30;7.80;;;;;;;;;;5076936;28;20470;-76
2022/01/23 13:35:22;;;;;;;70.07;8.70;;;;;;;;;;5096021;28;20449;-74
2022/01/23 13:37:55;;;;;;;65.20;6.90;;;;;;;;;;5095437;28;20451;-74
2022/01/23 13:40:33;;;;;;;62.60;6.47;;;;;;;;;;5095385;28;20943;-75
2022/01/23 13:51:35;;;;;;;60.00;4.40;;;;;;;;;;5096500;28;20414;-75
2022/01/23 13:54:18;;;;;;;60.00;4.03;;;;;;;;;;5097678;28;20474;-75
2022/01/23 13:59:35;;;;;;;60.90;4.47;;;;;;;;;;5095145;28;20426;-75
2022/01/23 14:02:15;;;;;;;60.40;4.97;;;;;;;;;;5095217;28;20577;-76
2022/01/23 14:04:43;;;;;;;62.00;5.18;;;;;;;;;;5095001;28;20449;-75
2022/01/23 14:07:10;;;;;;;59.80;4.63;;;;;;;;;;5094587;28;20223;-75
2022/01/23 14:09:43;;;;;;;61.40;5.37;;;;;;;;;;5094842;28;20961;-75
2022/01/23 14:12:10;;;;;;;62.17;6.03;;;;;;;;;;5095260;28;20471;-75
2022/01/23 14:14:48;;;;;;;60.60;5.10;;;;;;;;;;5095150;28;20950;-76
2022/01/23 14:17:18;;;;;;;64.50;5.47;;;;;;;;;;5094053;28;20486;-75
2022/01/23 14:19:57;;;;;;;61.10;4.93;;;;;;;;;;5094837;28;20447;-76
2022/01/23 14:22:28;;;;;;;62.97;6.17;;;;;;;;;;5094488;28;21014;-76
2022/01/23 14:25:06;;;;;;;64.37;5.00;;;;;;;;;;5094968;28;20494;-74
2022/01/23 14:27:33;;;;;;;61.20;4.87;;;;;;;;;;5094420;28;20479;-73
2022/01/23 14:30:03;;;;;;;60.17;4.47;;;;;;;;;;5094571;28;20818;-75
2022/01/23 14:32:40;;;;;;;59.97;4.27;;;;;;;;;;5094130;28;20516;-74
2022/01/23 14:35:08;;;;;;;60.60;4.77;;;;;;;;;;5094536;28;20438;-76
2022/01/23 14:37:36;;;;;;;59.07;3.77;;;;;;;;;;5094557;28;20454;-77
2022/01/23 14:40:17;;;;;;;61.03;4.80;;;;;;;;;;5094514;28;20830;-75
2022/01/23 14:43:01;;;;;;;66.53;7.37;;;;;;;;;;5094199;28;20600;-75
2022/01/23 14:45:28;;;;;;;61.40;5.70;;;;;;;;;;5094320;28;20575;-75
2022/01/23 14:47:57;;;;;;;62.67;5.03;;;;;;;;;;5093877;28;20450;-75
2022/01/23 14:50:26;;;;;;;62.80;5.60;;;;;;;;;;5094296;28;20529;-75
2022/01/23 14:52:53;;;;;;;60.83;4.72;;;;;;;;;;5094111;28;20229;-75
2022/01/23 14:55:20;;;;;;;62.37;5.27;;;;;;;;;;5094111;28;20201;-75
2022/01/23 14:57:48;;;;;;;59.50;4.20;;;;;;;;;;5093618;28;20455;-75
2022/01/23 15:00:16;;;;;;;61.78;4.30;;;;;;;;;;5094148;28;20762;-75
2022/01/23 15:02:43;;;;;;;63.20;4.90;;;;;;;;;;5093637;28;20308;-76
2022/01/23 15:05:12;;;;;;;64.07;5.67;;;;;;;;;;5093837;28;20257;-75
2022/01/23 15:07:40;;;;;;;61.45;4.70;;;;;;;;;;5093332;28;20550;-75
2022/01/23 15:10:08;;;;;;;62.20;5.80;;;;;;;;;;5093572;28;20291;-75
2022/01/23 15:12:35;;;;;;;61.90;4.77;;;;;;;;;;5092966;28;20509;-75
2022/01/23 15:15:03;;;;;;;59.30;4.20;;;;;;;;;;5093803;28;20455;-75
2022/01/23 15:17:30;;;;;;;60.77;3.80;;;;;;;;;;5093219;28;20216;-75
2022/01/23 15:19:57;;;;;;;59.90;3.67;;;;;;;;;;5093790;28;20482;-75
2022/01/23 15:22:27;;;;;;;59.30;3.70;;;;;;;;;;5097185;28;20502;-75
2022/01/23 15:24:55;;;;;;;59.70;4.07;;;;;;;;;;5112583;28;20938;-76
2022/01/23 15:27:22;;;;;;;60.80;4.00;;;;;;;;;;5113300;28;21016;-75
2022/01/23 15:29:49;;;;;;;59.27;3.80;;;;;;;;;;5112841;28;20442;-75
2022/01/23 15:32:16;;;;;;;60.20;4.10;;;;;;;;;;5113500;28;20494;-75
2022/01/23 15:34:44;;;;;;;59.57;4.20;;;;;;;;;;5113910;28;20489;-75
2022/01/23 15:37:13;;;;;;;59.40;4.40;;;;;;;;;;5113369;28;20482;-75
2022/01/23 15:39:42;;;;;;;59.47;4.10;;;;;;;;;;5113855;28;20460;-74
2022/01/23 15:42:09;;;;;;;59.70;3.80;;;;;;;;;;5111353;28;20469;-72
2022/01/23 15:44:37;;;;;;;60.97;4.70;;;;;;;;;;5112835;28;20882;-72
2022/01/23 15:47:05;;;;;;;60.58;4.50;;;;;;;;;;5112706;28;20310;-71
2022/01/23 15:49:32;;;;;;;63.03;5.72;;;;;;;;;;5113346;28;20296;-72
2022/01/23 15:52:00;;;;;;;64.45;6.32;;;;;;;;;;5113145;28;20255;-72
2022/01/23 15:54:29;;;;;;;63.20;5.55;;;;;;;;;;5112793;28;20214;-75
2022/01/23 15:56:58;;;;;;;65.30;7.25;;;;;;;;;;5112748;28;20291;-72
2022/01/23 15:59:25;;;;;;;75.00;11.18;;;;;;;;;;5112694;28;20235;-72
2022/01/23 16:01:52;;;;;;;66.75;8.18;;;;;;;;;;5112547;28;20210;-70
2022/01/23 16:04:21;;;;;;;68.28;7.53;;;;;;;;;;5112289;28;20587;-71
2022/01/23 16:06:48;;;;;;;68.07;7.53;;;;;;;;;;5112476;28;20228;-71
2022/01/23 16:09:16;;;;;;;73.80;9.30;;;;;;;;;;5112381;28;20595;-73
2022/01/23 16:11:43;;;;;;;72.50;10.30;;;;;;;;;;5112700;28;20208;-73
2022/01/23 16:14:12;;;;;;;67.82;8.30;;;;;;;;;;5112596;28;20313;-73
2022/01/23 16:16:39;;;;;;;64.82;7.10;;;;;;;;;;5112283;28;20200;-72
2022/01/23 16:19:06;;;;;;;64.60;5.95;;;;;;;;;;5112164;27;20211;-73
2022/01/23 16:21:33;;;;;;;65.72;6.70;;;;;;;;;;5112585;28;20211;-74
2022/01/23 16:24:01;;;;;;;62.67;5.53;;;;;;;;;;5113279;28;20220;-76
2022/01/23 16:26:28;;;;;;;64.78;5.53;;;;;;;;;;5113850;28;20759;-74
2022/01/23 16:28:55;;;;;;;73.75;9.85;;;;;;;;;;5112435;28;20210;-69
2022/01/23 16:31:23;;;;;;;65.07;6.55;;;;;;;;;;5112632;28;20218;-72
2022/01/23 16:33:50;;;;;;;62.20;5.10;;;;;;;;;;5112083;28;20716;-71
2022/01/23 16:36:18;;;;;;;83.25;13.30;;;;;;;;;;5111782;28;20427;-74
2022/01/23 16:38:45;;;;;;;73.32;11.82;;;;;;;;;;5112179;27;20299;-72
2022/01/23 16:41:12;;;;;;;68.03;7.80;;;;;;;;;;5109941;28;20640;-73
2022/01/23 16:43:39;;;;;;;62.10;5.35;;;;;;;;;;5112108;28;20738;-73
2022/01/23 16:46:07;;;;;;;60.28;4.60;;;;;;;;;;5112131;28;20224;-72
2022/01/23 16:48:35;;;;;;;59.75;4.90;;;;;;;;;;5112130;28;20232;-73
2022/01/23 16:51:03;;;;;;;61.20;4.40;;;;;;;;;;5111909;28;20211;-73
2022/01/23 16:53:31;;;;;;;61.10;4.65;;;;;;;;;;5111670;28;20592;-74
2022/01/23 16:55:58;;;;;;;61.35;4.32;;;;;;;;;;5112006;28;20672;-74
2022/01/23 16:58:25;;;;;;;60.60;4.32;;;;;;;;;;5111835;28;20299;-73
2022/01/23 17:00:52;;;;;;;63.60;5.78;;;;;;;;;;5112002;28;20200;-72
2022/01/23 17:03:20;;;;;;;61.60;4.90;;;;;;;;;;5112119;28;20315;-74
2022/01/23 17:05:48;;;;;;;64.53;5.30;;;;;;;;;;5112162;28;20644;-73
2022/01/23 17:08:16;;;;;;;61.25;4.97;;;;;;;;;;5111875;28;20246;-73
2022/01/23 17:10:44;;;;;;;61.72;5.57;;;;;;;;;;5111716;28;20672;-73
2022/01/23 17:13:11;;;;;;;61.00;4.82;;;;;;;;;;5109269;28;20259;-73
2022/01/23 17:15:39;;;;;;;61.85;4.95;;;;;;;;;;5111723;28;20215;-73
2022/01/23 17:18:06;;;;;;;60.88;4.90;;;;;;;;;;5111887;28;20295;-73